WJA007 MMMX-CYVR
Flight info
| Callsign | WJA007 |
|---|---|
| Flight time | N/A |
| Altitude | 32000 |
| Route | ATURO2A ATURO UT135 AXABA/N0460F340 J13 BECON DCT RUTER J86 BAVPE DCT CORKR Q35 NEERO/N0450F360 Q35 IMB J523 SEA DCT PAE GRIZZ9 |
| Aircraft | B738/M-SDE2E3FGHIRWXY/LB1 |
Departure
| Time | 2026-05-08 02:54 |
|---|---|
| Airport | Mexico City Benito Juárez International Airport (MMMX) |
Arrival
| Time | N/A |
|---|---|
| Airport | Vancouver International Airport (CYVR) |
| Time | Latitude | Longitude | Altitude | Speed | Heading |
|---|---|---|---|---|---|
| 2026-05-08 02:32 | 19.43367 | -99.08385 | 7301 ft | 0 kts | 328° |
| 2026-05-08 02:41 | 19.43366 | -99.08385 | 7301 ft | 0 kts | 328° |
| 2026-05-08 02:45 | 19.43352 | -99.08376 | 7301 ft | 4 kts | 326° |
| 2026-05-08 02:45 | 19.43330 | -99.08359 | 7301 ft | 4 kts | 320° |
| 2026-05-08 02:46 | 19.43311 | -99.08339 | 7301 ft | 4 kts | 304° |
| 2026-05-08 02:46 | 19.43302 | -99.08316 | 7301 ft | 4 kts | 252° |
| 2026-05-08 02:46 | 19.43304 | -99.08310 | 7301 ft | 0 kts | 238° |
| 2026-05-08 02:49 | 19.43304 | -99.08311 | 7301 ft | 1 kts | 238° |
| 2026-05-08 02:49 | 19.43291 | -99.08332 | 7301 ft | 6 kts | 238° |
| 2026-05-08 02:49 | 19.43259 | -99.08389 | 7300 ft | 11 kts | 239° |
| 2026-05-08 02:49 | 19.43214 | -99.08470 | 7300 ft | 13 kts | 239° |
| 2026-05-08 02:50 | 19.43168 | -99.08552 | 7300 ft | 13 kts | 239° |
| 2026-05-08 02:50 | 19.43123 | -99.08633 | 7300 ft | 12 kts | 239° |
| 2026-05-08 02:50 | 19.43079 | -99.08711 | 7299 ft | 12 kts | 240° |
| 2026-05-08 02:50 | 19.43036 | -99.08786 | 7299 ft | 12 kts | 238° |
| 2026-05-08 02:51 | 19.42996 | -99.08861 | 7300 ft | 12 kts | 239° |
| 2026-05-08 02:51 | 19.42955 | -99.08933 | 7300 ft | 11 kts | 239° |
| 2026-05-08 02:51 | 19.42913 | -99.09001 | 7300 ft | 11 kts | 231° |
| 2026-05-08 02:51 | 19.42876 | -99.09035 | 7300 ft | 11 kts | 212° |
| 2026-05-08 02:52 | 19.42811 | -99.09072 | 7300 ft | 10 kts | 206° |
| 2026-05-08 02:52 | 19.42772 | -99.09077 | 7300 ft | 4 kts | 157° |
| 2026-05-08 02:52 | 19.42760 | -99.09051 | 7301 ft | 4 kts | 89° |
| 2026-05-08 02:52 | 19.42773 | -99.09018 | 7301 ft | 7 kts | 60° |
| 2026-05-08 02:53 | 19.42857 | -99.08870 | 7301 ft | 50 kts | 59° |
| 2026-05-08 02:53 | 19.43131 | -99.08383 | 7299 ft | 103 kts | 59° |
| 2026-05-08 02:53 | 19.43581 | -99.07584 | 7303 ft | 148 kts | 59° |
| 2026-05-08 02:53 | 19.44184 | -99.06522 | 7305 ft | 188 kts | 59° |
| 2026-05-08 02:54 | 19.44872 | -99.05306 | 7739 ft | 195 kts | 56° |
| 2026-05-08 02:54 | 19.45607 | -99.04072 | 8258 ft | 201 kts | 56° |
| 2026-05-08 02:54 | 19.46371 | -99.02846 | 8933 ft | 200 kts | 59° |
| 2026-05-08 02:54 | 19.47093 | -99.01506 | 9080 ft | 216 kts | 59° |
| 2026-05-08 02:55 | 19.47856 | -99.00084 | 9186 ft | 228 kts | 58° |
| 2026-05-08 02:55 | 19.49506 | -98.96953 | 9360 ft | 257 kts | 70° |
| 2026-05-08 02:55 | 19.49706 | -98.95031 | 9520 ft | 272 kts | 100° |
| 2026-05-08 02:56 | 19.48989 | -98.93200 | 10001 ft | 270 kts | 128° |
| 2026-05-08 02:56 | 19.47636 | -98.91848 | 10580 ft | 268 kts | 146° |
| 2026-05-08 02:56 | 19.46070 | -98.90750 | 11067 ft | 273 kts | 148° |
| 2026-05-08 02:56 | 19.44474 | -98.89665 | 11644 ft | 272 kts | 149° |
| 2026-05-08 02:57 | 19.42878 | -98.88577 | 12164 ft | 275 kts | 149° |
| 2026-05-08 02:57 | 19.41282 | -98.87479 | 12623 ft | 279 kts | 149° |
| 2026-05-08 02:57 | 19.39637 | -98.86336 | 13236 ft | 279 kts | 149° |
| 2026-05-08 02:57 | 19.38006 | -98.85197 | 13732 ft | 282 kts | 150° |
| 2026-05-08 02:58 | 19.36372 | -98.84054 | 14301 ft | 281 kts | 150° |
| 2026-05-08 02:58 | 19.34727 | -98.82903 | 14738 ft | 285 kts | 150° |
| 2026-05-08 02:58 | 19.32962 | -98.82034 | 15128 ft | 284 kts | 172° |
| 2026-05-08 02:58 | 19.30961 | -98.81885 | 15308 ft | 297 kts | 183° |
| 2026-05-08 02:59 | 19.28843 | -98.82008 | 15427 ft | 312 kts | 186° |
| 2026-05-08 02:59 | 19.26621 | -98.82190 | 15564 ft | 328 kts | 186° |
| 2026-05-08 02:59 | 19.24296 | -98.82368 | 15718 ft | 341 kts | 185° |
| 2026-05-08 02:59 | 19.21913 | -98.82525 | 16150 ft | 344 kts | 184° |
| 2026-05-08 03:00 | 19.19516 | -98.82671 | 16629 ft | 346 kts | 184° |
| 2026-05-08 03:00 | 19.17131 | -98.82813 | 17200 ft | 344 kts | 184° |
| 2026-05-08 03:00 | 19.14725 | -98.82954 | 17565 ft | 350 kts | 183° |
| 2026-05-08 03:00 | 19.12273 | -98.83098 | 17926 ft | 356 kts | 183° |
| 2026-05-08 03:01 | 19.09794 | -98.83244 | 18372 ft | 357 kts | 183° |
| 2026-05-08 03:01 | 19.07298 | -98.83391 | 18719 ft | 362 kts | 183° |
| 2026-05-08 03:01 | 19.04775 | -98.83541 | 19141 ft | 362 kts | 183° |
| 2026-05-08 03:01 | 19.02258 | -98.83690 | 19566 ft | 362 kts | 183° |
| 2026-05-08 03:02 | 18.99734 | -98.83839 | 19942 ft | 365 kts | 183° |
| 2026-05-08 03:02 | 18.97192 | -98.83989 | 20307 ft | 368 kts | 183° |
| 2026-05-08 03:02 | 18.94622 | -98.84141 | 20667 ft | 371 kts | 183° |
| 2026-05-08 03:02 | 18.92051 | -98.84405 | 21057 ft | 372 kts | 187° |
| 2026-05-08 03:03 | 18.89487 | -98.84807 | 21453 ft | 372 kts | 188° |
| 2026-05-08 03:03 | 18.86940 | -98.85246 | 21979 ft | 370 kts | 188° |
| 2026-05-08 03:03 | 18.84397 | -98.85684 | 22336 ft | 373 kts | 188° |
| 2026-05-08 03:03 | 18.81830 | -98.86116 | 22710 ft | 374 kts | 188° |
| 2026-05-08 03:04 | 18.79248 | -98.86540 | 23098 ft | 377 kts | 188° |
| 2026-05-08 03:04 | 18.76652 | -98.86960 | 23415 ft | 378 kts | 188° |
| 2026-05-08 03:04 | 18.74042 | -98.87378 | 23740 ft | 379 kts | 188° |
| 2026-05-08 03:04 | 18.71423 | -98.87796 | 23989 ft | 383 kts | 188° |
| 2026-05-08 03:05 | 18.68778 | -98.88217 | 24253 ft | 385 kts | 188° |
| 2026-05-08 03:05 | 18.66135 | -98.88638 | 24631 ft | 384 kts | 188° |
| 2026-05-08 03:05 | 18.63481 | -98.89061 | 24868 ft | 387 kts | 188° |
| 2026-05-08 03:05 | 18.60803 | -98.89488 | 25129 ft | 389 kts | 188° |
| 2026-05-08 03:06 | 18.58120 | -98.89915 | 25395 ft | 392 kts | 188° |
| 2026-05-08 03:06 | 18.55410 | -98.90346 | 25537 ft | 398 kts | 188° |
| 2026-05-08 03:06 | 18.52653 | -98.90784 | 25696 ft | 402 kts | 188° |
| 2026-05-08 03:06 | 18.49890 | -98.91226 | 26066 ft | 401 kts | 189° |
| 2026-05-08 03:07 | 18.47229 | -98.92104 | 26290 ft | 405 kts | 208° |
| 2026-05-08 03:07 | 18.44934 | -98.93843 | 26535 ft | 410 kts | 222° |
| 2026-05-08 03:07 | 18.43098 | -98.96150 | 26775 ft | 415 kts | 237° |
| 2026-05-08 03:07 | 18.41914 | -98.98892 | 26999 ft | 421 kts | 253° |
| 2026-05-08 03:08 | 18.41522 | -99.01964 | 27220 ft | 428 kts | 270° |
| 2026-05-08 03:08 | 18.42029 | -99.05068 | 27458 ft | 435 kts | 288° |
| 2026-05-08 03:08 | 18.43412 | -99.07913 | 27691 ft | 441 kts | 305° |
| 2026-05-08 03:08 | 18.45547 | -99.10247 | 27923 ft | 446 kts | 322° |
| 2026-05-08 03:09 | 18.48226 | -99.11904 | 28148 ft | 450 kts | 337° |
| 2026-05-08 03:09 | 18.51240 | -99.12800 | 28342 ft | 453 kts | 352° |
| 2026-05-08 03:09 | 18.54376 | -99.13166 | 28615 ft | 454 kts | 353° |
| 2026-05-08 03:09 | 18.57461 | -99.13868 | 28777 ft | 456 kts | 340° |
| 2026-05-08 03:10 | 18.60373 | -99.15208 | 28909 ft | 458 kts | 328° |
| 2026-05-08 03:10 | 18.63120 | -99.16918 | 29157 ft | 459 kts | 327° |
| 2026-05-08 03:10 | 18.65857 | -99.18641 | 29507 ft | 457 kts | 328° |
| 2026-05-08 03:10 | 18.68599 | -99.20359 | 29706 ft | 460 kts | 328° |
| 2026-05-08 03:11 | 18.71363 | -99.22081 | 29867 ft | 463 kts | 328° |
| 2026-05-08 03:11 | 18.74144 | -99.23803 | 30172 ft | 462 kts | 328° |
| 2026-05-08 03:11 | 18.76921 | -99.25513 | 30308 ft | 465 kts | 328° |
| 2026-05-08 03:12 | 18.82563 | -99.28982 | 30462 ft | 472 kts | 328° |
| 2026-05-08 03:12 | 18.88286 | -99.32495 | 30635 ft | 478 kts | 328° |
| 2026-05-08 03:13 | 18.94079 | -99.36054 | 30761 ft | 485 kts | 328° |
| 2026-05-08 03:13 | 18.99860 | -99.39608 | 31383 ft | 476 kts | 328° |
| 2026-05-08 03:13 | 19.02698 | -99.41353 | 31952 ft | 469 kts | 328° |
| 2026-05-08 03:14 | 19.05522 | -99.43092 | 32084 ft | 471 kts | 328° |
| 2026-05-08 03:14 | 19.11209 | -99.46599 | 32205 ft | 476 kts | 328° |
| 2026-05-08 03:15 | 19.16954 | -99.50145 | 32310 ft | 480 kts | 328° |
| 2026-05-08 03:15 | 19.22757 | -99.53728 | 32386 ft | 484 kts | 328° |
| 2026-05-08 03:16 | 19.28601 | -99.57339 | 32413 ft | 488 kts | 328° |
| 2026-05-08 03:16 | 19.34487 | -99.60979 | 32412 ft | 492 kts | 328° |
| 2026-05-08 03:17 | 19.40415 | -99.64647 | 32395 ft | 494 kts | 328° |
| 2026-05-08 03:17 | 19.46367 | -99.68334 | 32318 ft | 496 kts | 328° |
| 2026-05-08 03:18 | 19.52294 | -99.72008 | 32242 ft | 497 kts | 328° |
| 2026-05-08 03:18 | 19.58814 | -99.76053 | 32157 ft | 498 kts | 327° |
| 2026-05-08 03:19 | 19.70797 | -99.83499 | 32090 ft | 499 kts | 327° |
| 2026-05-08 03:19 | 19.82765 | -99.90948 | 32083 ft | 498 kts | 327° |
| 2026-05-08 03:20 | 19.94718 | -99.98401 | 32056 ft | 498 kts | 327° |
| 2026-05-08 03:20 | 20.06648 | -100.05853 | 32053 ft | 497 kts | 327° |
| 2026-05-08 03:21 | 20.18557 | -100.13305 | 32022 ft | 496 kts | 326° |
| 2026-05-08 03:21 | 20.30438 | -100.20753 | 32015 ft | 495 kts | 326° |
| 2026-05-08 03:22 | 20.42295 | -100.28199 | 32152 ft | 493 kts | 326° |
| 2026-05-08 03:22 | 20.48197 | -100.31910 | 31990 ft | 493 kts | 326° |
| 2026-05-08 03:22 | 20.54105 | -100.35629 | 31991 ft | 493 kts | 326° |
| 2026-05-08 03:23 | 20.68471 | -100.44686 | 31988 ft | 493 kts | 326° |
| 2026-05-08 03:23 | 20.80190 | -100.52088 | 31984 ft | 492 kts | 326° |
| 2026-05-08 03:24 | 20.91995 | -100.59559 | 31993 ft | 493 kts | 326° |
| 2026-05-08 03:24 | 21.03794 | -100.67040 | 32015 ft | 493 kts | 326° |
| 2026-05-08 03:25 | 21.15612 | -100.74547 | 32030 ft | 493 kts | 326° |
| 2026-05-08 03:25 | 21.27419 | -100.82060 | 32026 ft | 494 kts | 326° |
| 2026-05-08 03:26 | 21.39241 | -100.89598 | 32040 ft | 494 kts | 325° |
| 2026-05-08 03:26 | 21.51048 | -100.97140 | 32038 ft | 494 kts | 325° |
| 2026-05-08 03:27 | 21.62865 | -101.04704 | 32031 ft | 494 kts | 325° |
| 2026-05-08 03:27 | 21.74657 | -101.12266 | 32030 ft | 494 kts | 325° |
| 2026-05-08 03:28 | 21.86474 | -101.19859 | 32028 ft | 494 kts | 325° |
| 2026-05-08 03:28 | 21.98187 | -101.27400 | 32021 ft | 494 kts | 324° |
| 2026-05-08 03:29 | 22.09088 | -101.36218 | 32032 ft | 489 kts | 316° |
| 2026-05-08 03:29 | 22.19668 | -101.45496 | 32013 ft | 491 kts | 316° |
| 2026-05-08 03:30 | 22.35661 | -101.59318 | 31996 ft | 491 kts | 316° |
| 2026-05-08 03:30 | 23.19846 | -102.33935 | 31703 ft | 480 kts | 311° |
| 2026-05-08 03:31 | 24.35284 | -103.32312 | 32004 ft | 524 kts | 334° |
| 2026-05-08 03:31 | 25.25091 | -103.92940 | 32599 ft | 503 kts | 324° |
| 2026-05-08 03:32 | 25.76989 | -104.17453 | 31923 ft | 501 kts | 329° |
| 2026-05-08 03:32 | 26.24991 | -104.44384 | 31633 ft | 470 kts | 319° |
| 2026-05-08 03:32 | 26.69874 | -104.75413 | 32178 ft | 474 kts | 316° |
| 2026-05-08 03:32 | 27.14043 | -105.08936 | 32073 ft | 486 kts | 316° |
| 2026-05-08 03:33 | 27.59873 | -105.42040 | 31790 ft | 491 kts | 318° |
| 2026-05-08 03:33 | 29.15878 | -106.56748 | 31702 ft | 473 kts | 313° |
| 2026-05-08 03:33 | 30.04041 | -107.27193 | 32382 ft | 489 kts | 317° |
| 2026-05-08 03:34 | 30.95484 | -107.96497 | 31765 ft | 493 kts | 319° |
| 2026-05-08 03:34 | 31.67619 | -108.53731 | 31721 ft | 482 kts | 317° |
| 2026-05-08 03:34 | 32.10562 | -108.91622 | 31896 ft | 481 kts | 323° |
| 2026-05-08 03:34 | 32.54731 | -109.26526 | 31792 ft | 470 kts | 329° |
| 2026-05-08 03:35 | 32.97100 | -109.60801 | 31781 ft | 451 kts | 331° |
| 2026-05-08 03:35 | 33.78618 | -110.28805 | 32074 ft | 447 kts | 330° |
| 2026-05-08 03:36 | 34.60113 | -111.00049 | 31951 ft | 450 kts | 329° |
| 2026-05-08 03:36 | 35.34395 | -111.65657 | 31955 ft | 447 kts | 327° |
| 2026-05-08 03:36 | 35.74151 | -112.02055 | 32099 ft | 446 kts | 324° |
| 2026-05-08 03:37 | 36.11202 | -112.43558 | 32031 ft | 450 kts | 318° |
| 2026-05-08 03:37 | 36.53388 | -112.71560 | 31584 ft | 422 kts | 352° |
| 2026-05-08 03:37 | 36.59120 | -112.72618 | 31751 ft | 420 kts | 353° |
| 2026-05-08 03:37 | 36.62019 | -112.73165 | 31864 ft | 422 kts | 350° |
| 2026-05-08 03:38 | 36.64904 | -112.73981 | 31912 ft | 427 kts | 346° |
| 2026-05-08 03:38 | 36.80261 | -112.80904 | 32089 ft | 448 kts | 338° |
| 2026-05-08 03:38 | 36.90475 | -112.87022 | 32165 ft | 452 kts | 332° |
| 2026-05-08 03:39 | 36.95847 | -112.90878 | 32119 ft | 440 kts | 333° |
| 2026-05-08 03:39 | 37.01235 | -112.94446 | 32125 ft | 437 kts | 335° |